Slavkov u Brna, Czech Republic
Current Conditions -  °F | °C
As of 2:30 AM on Sunday 23 Nov 2014 (Local Time) from LKTB Reporting Station
Overcast Overcast  
Wind Chill: 38°   Ceiling: 2300
Heat Index: 41°   Visibility: 6mi
Dew Point: 36°   Wind: 5mph
Humidity: 81%   Direction: 110°ESE
Pressure: 30.33"   Gusts: NA
Location:  49.15°N, 16.86°E
Report Text: LKTB 230030Z 11004KT 9999 OVC023 05/02 Q1027 NOSIG
Loading
Personal Weather Stations






























Interactive Weather Map New forecast layout! Learn more

10-Day Weather Forecast

Advertisements
Track Severe Weather on mobile